Terminal Aerodrome Forecast
Issued by NWS

Home | Current Version | Previous Version | Text Only | Print | Product List | Glossary On
Versions: 1 2 3 4 5 6 7 8 9 10 11 12 13 14 15 16 17 18 19 20 21 22 23 24
000
FTUS46 KPDT 272300
TAFYKM
TAF
KYKM 272321Z 2800/2824 19020G30KT P6SM SCT070 SCT110
     FM280300 26006KT P6SM SCT070 BKN090
     FM281500 26005KT P6SM BKN090
     FM281800 21014G22KT P6SM SCT050 BKN120=

USA.gov is the U.S. government's official web portal to all federal, state and local government web resources and services.